PWSweather.com
Personal Weather Stations
Station Observations
KNCCHINA3
Red Tractor Trail, China Grove, NC 28023

Red Tractor TrailChina Grove, NC 28023

Lat: 35.59751, Lon: -80.60201

Elevation: 800

Station Type: Oregon Scientific WMR 968

http://www.joesweathergarage.com

High Low Average
Temperature 77.7°F25.4°C 55.8°F13.2°C 64.7°F18.2°C
Dew Point 62.7°F17.1°C 55.2°F12.9°C 59.2°F15.1°C
Winds 12.2 mph 19.6 kmh 2.6 mph 4.2 kmh 7.0 mph SW11.3 kmh SW
Wind Gusts 18.8 mph30.3 kmh 5.4 mph8.7 kmh 11.0 mph17.7 kmh
Humidity 98% 56% 84%
Pressure 30.24 in1024.0 mb 29.94 in1013.9 mb -
Precipitation 0.00 in0.0 mm - -
Hour Temp Dew Point Humidity Winds Wind Gusts Pressure Precip Precip Rate Daily Precip Total
12:04 AM 55.3°F12.9°C 54.7°F12.6°C 98% 3.6 mph SSW5.8 kmh SSW 6.8 mph10.9 kmh 30.24 in1024.0 mb 0.00 in0.0 mm 0.00 in0.0 mm 0.00 in0.0 mm
12:09 AM 55.5°F13.1°C 54.9°F12.7°C 98% 4.2 mph SW6.8 kmh SW 6.8 mph10.9 kmh 30.24 in1024.0 mb 0.00 in0.0 mm 0.00 in0.0 mm 0.00 in0.0 mm
12:14 AM 55.7°F13.2°C 55.1°F12.8°C 98% 3.7 mph SW6.0 kmh SW 6.8 mph10.9 kmh 30.21 in1023.0 mb 0.00 in0.0 mm 0.00 in0.0 mm 0.00 in0.0 mm
12:19 AM 55.8°F13.2°C 55.2°F12.9°C 98% 3.6 mph SW5.8 kmh SW 6.8 mph10.9 kmh 30.21 in1023.0 mb 0.00 in0.0 mm 0.00 in0.0 mm 0.00 in0.0 mm
12:24 AM 56.0°F13.3°C 55.4°F13.0°C 98% 4.8 mph SW7.7 kmh SW 6.2 mph10.0 kmh 30.21 in1023.0 mb 0.00 in0.0 mm 0.00 in0.0 mm 0.00 in0.0 mm
12:29 AM 56.2°F13.4°C 55.6°F13.1°C 98% 4.2 mph SW6.8 kmh SW 6.8 mph10.9 kmh 30.21 in1023.0 mb 0.00 in0.0 mm 0.00 in0.0 mm 0.00 in0.0 mm
12:34 AM 56.2°F13.4°C 55.6°F13.1°C 98% 4.4 mph SW7.1 kmh SW 6.8 mph10.9 kmh 30.21 in1023.0 mb 0.00 in0.0 mm 0.00 in0.0 mm 0.00 in0.0 mm
12:39 AM 56.2°F13.4°C 55.6°F13.1°C 98% 2.7 mph SW4.3 kmh SW 6.2 mph10.0 kmh 30.21 in1023.0 mb 0.00 in0.0 mm 0.00 in0.0 mm 0.00 in0.0 mm
12:45 AM 56.4°F13.6°C 55.8°F13.2°C 98% 4.0 mph S6.4 kmh S 6.2 mph10.0 kmh 30.21 in1023.0 mb 0.00 in0.0 mm 0.00 in0.0 mm 0.00 in0.0 mm
12:51 AM 56.4°F13.6°C 55.8°F13.2°C 98% 4.3 mph SW6.9 kmh SW 6.8 mph10.9 kmh 30.21 in1023.0 mb 0.00 in0.0 mm 0.00 in0.0 mm 0.00 in0.0 mm
12:56 AM 56.6°F13.7°C 56.0°F13.3°C 98% 5.1 mph SSE8.2 kmh SSE 7.6 mph12.2 kmh 30.21 in1023.0 mb 0.00 in0.0 mm 0.00 in0.0 mm 0.00 in0.0 mm
01:01 AM 56.4°F13.6°C 55.8°F13.2°C 98% 2.6 mph SSW4.2 kmh SSW 9.4 mph15.1 kmh 30.21 in1023.0 mb 0.00 in0.0 mm 0.00 in0.0 mm 0.00 in0.0 mm
01:06 AM 56.2°F13.4°C 55.6°F13.1°C 98% 5.4 mph S8.7 kmh S 9.4 mph15.1 kmh 30.21 in1023.0 mb 0.00 in0.0 mm 0.00 in0.0 mm 0.00 in0.0 mm
01:12 AM 56.2°F13.4°C 55.6°F13.1°C 98% 5.1 mph SSW8.2 kmh SSW 7.2 mph11.6 kmh 30.21 in1023.0 mb 0.00 in0.0 mm 0.00 in0.0 mm 0.00 in0.0 mm
01:35 AM 56.0°F13.3°C 55.4°F13.0°C 98% 4.1 mph SSW6.6 kmh SSW 6.2 mph10.0 kmh 30.24 in1024.0 mb 0.00 in0.0 mm 0.00 in0.0 mm 0.00 in0.0 mm
01:40 AM 56.0°F13.3°C 55.4°F13.0°C 98% 3.9 mph SW6.3 kmh SW 5.8 mph9.3 kmh 30.24 in1024.0 mb 0.00 in0.0 mm 0.00 in0.0 mm 0.00 in0.0 mm
01:45 AM 55.8°F13.2°C 55.2°F12.9°C 98% 3.6 mph SSW5.8 kmh SSW 5.8 mph9.3 kmh 30.21 in1023.0 mb 0.00 in0.0 mm 0.00 in0.0 mm 0.00 in0.0 mm
01:50 AM 55.8°F13.2°C 55.2°F12.9°C 98% 3.9 mph SSW6.3 kmh SSW 6.2 mph10.0 kmh 30.21 in1023.0 mb 0.00 in0.0 mm 0.00 in0.0 mm 0.00 in0.0 mm
01:55 AM 55.8°F13.2°C 55.2°F12.9°C 98% 4.2 mph SW6.8 kmh SW 6.2 mph10.0 kmh 30.21 in1023.0 mb 0.00 in0.0 mm 0.00 in0.0 mm 0.00 in0.0 mm
02:01 AM 55.8°F13.2°C 55.2°F12.9°C 98% 5.4 mph SW8.7 kmh SW 7.2 mph11.6 kmh 30.21 in1023.0 mb 0.00 in0.0 mm 0.00 in0.0 mm 0.00 in0.0 mm
02:06 AM 55.8°F13.2°C 55.2°F12.9°C 98% 4.3 mph SSW6.9 kmh SSW 7.2 mph11.6 kmh 30.21 in1023.0 mb 0.00 in0.0 mm 0.00 in0.0 mm 0.00 in0.0 mm
02:11 AM 55.8°F13.2°C 55.2°F12.9°C 98% 4.9 mph SSW7.9 kmh SSW 5.4 mph8.7 kmh 30.21 in1023.0 mb 0.00 in0.0 mm 0.00 in0.0 mm 0.00 in0.0 mm
02:16 AM 56.0°F13.3°C 55.4°F13.0°C 98% 5.2 mph SW8.4 kmh SW 6.8 mph10.9 kmh 30.15 in1021.0 mb 0.00 in0.0 mm 0.00 in0.0 mm 0.00 in0.0 mm
02:21 AM 56.0°F13.3°C 55.4°F13.0°C 98% 5.7 mph SSW9.2 kmh SSW 6.8 mph10.9 kmh 30.15 in1021.0 mb 0.00 in0.0 mm 0.00 in0.0 mm 0.00 in0.0 mm
02:26 AM 56.0°F13.3°C 55.4°F13.0°C 98% 5.1 mph SSW8.2 kmh SSW 7.6 mph12.2 kmh 30.15 in1021.0 mb 0.00 in0.0 mm 0.00 in0.0 mm 0.00 in0.0 mm
02:31 AM 56.0°F13.3°C 55.4°F13.0°C 98% 4.7 mph SW7.6 kmh SW 7.6 mph12.2 kmh 30.15 in1021.0 mb 0.00 in0.0 mm 0.00 in0.0 mm 0.00 in0.0 mm
02:36 AM 56.2°F13.4°C 55.6°F13.1°C 98% 6.0 mph SW9.7 kmh SW 9.8 mph15.8 kmh 30.15 in1021.0 mb 0.00 in0.0 mm 0.00 in0.0 mm 0.00 in0.0 mm
02:41 AM 56.2°F13.4°C 55.6°F13.1°C 98% 5.6 mph WSW9.0 kmh WSW 9.8 mph15.8 kmh 30.15 in1021.0 mb 0.00 in0.0 mm 0.00 in0.0 mm 0.00 in0.0 mm
02:46 AM 56.2°F13.4°C 55.6°F13.1°C 98% 5.2 mph WSW8.4 kmh WSW 7.2 mph11.6 kmh 30.15 in1021.0 mb 0.00 in0.0 mm 0.00 in0.0 mm 0.00 in0.0 mm
02:51 AM 56.2°F13.4°C 55.6°F13.1°C 98% 6.9 mph WSW11.1 kmh WSW 9.8 mph15.8 kmh 30.15 in1021.0 mb 0.00 in0.0 mm 0.00 in0.0 mm 0.00 in0.0 mm
02:56 AM 56.4°F13.6°C 55.8°F13.2°C 98% 5.2 mph SSW8.4 kmh SSW 9.8 mph15.8 kmh 30.15 in1021.0 mb 0.00 in0.0 mm 0.00 in0.0 mm 0.00 in0.0 mm
03:01 AM 56.2°F13.4°C 55.6°F13.1°C 98% 2.8 mph S4.5 kmh S 7.2 mph11.6 kmh 30.15 in1021.0 mb 0.00 in0.0 mm 0.00 in0.0 mm 0.00 in0.0 mm
03:06 AM 56.2°F13.4°C 55.6°F13.1°C 98% 3.6 mph SSW5.8 kmh SSW 6.2 mph10.0 kmh 30.15 in1021.0 mb 0.00 in0.0 mm 0.00 in0.0 mm 0.00 in0.0 mm
03:11 AM 56.2°F13.4°C 55.6°F13.1°C 98% 5.2 mph SW8.4 kmh SW 6.2 mph10.0 kmh 30.15 in1021.0 mb 0.00 in0.0 mm 0.00 in0.0 mm 0.00 in0.0 mm
03:16 AM 56.2°F13.4°C 55.6°F13.1°C 98% 4.6 mph SSW7.4 kmh SSW 6.2 mph10.0 kmh 30.12 in1020.0 mb 0.00 in0.0 mm 0.00 in0.0 mm 0.00 in0.0 mm
03:22 AM 56.2°F13.4°C 55.6°F13.1°C 98% 4.8 mph SW7.7 kmh SW 6.8 mph10.9 kmh 30.12 in1020.0 mb 0.00 in0.0 mm 0.00 in0.0 mm 0.00 in0.0 mm
03:27 AM 56.4°F13.6°C 55.8°F13.2°C 98% 3.0 mph SSW4.8 kmh SSW 7.6 mph12.2 kmh 30.12 in1020.0 mb 0.00 in0.0 mm 0.00 in0.0 mm 0.00 in0.0 mm
03:32 AM 56.4°F13.6°C 55.8°F13.2°C 98% 3.5 mph SW5.6 kmh SW 7.6 mph12.2 kmh 30.12 in1020.0 mb 0.00 in0.0 mm 0.00 in0.0 mm 0.00 in0.0 mm
03:37 AM 56.4°F13.6°C 55.8°F13.2°C 98% 5.4 mph WSW8.7 kmh WSW 7.6 mph12.2 kmh 30.12 in1020.0 mb 0.00 in0.0 mm 0.00 in0.0 mm 0.00 in0.0 mm
03:42 AM 56.6°F13.7°C 56.0°F13.3°C 98% 4.0 mph SSW6.4 kmh SSW 8.0 mph12.9 kmh 30.12 in1020.0 mb 0.00 in0.0 mm 0.00 in0.0 mm 0.00 in0.0 mm
03:47 AM 56.4°F13.6°C 55.8°F13.2°C 98% 3.7 mph WSW6.0 kmh WSW 8.0 mph12.9 kmh 30.12 in1020.0 mb 0.00 in0.0 mm 0.00 in0.0 mm 0.00 in0.0 mm
03:52 AM 56.6°F13.7°C 56.0°F13.3°C 98% 3.8 mph S6.1 kmh S 7.2 mph11.6 kmh 30.12 in1020.0 mb 0.00 in0.0 mm 0.00 in0.0 mm 0.00 in0.0 mm
03:57 AM 56.6°F13.7°C 56.0°F13.3°C 98% 3.4 mph S5.5 kmh S 7.2 mph11.6 kmh 30.15 in1021.0 mb 0.00 in0.0 mm 0.00 in0.0 mm 0.00 in0.0 mm
04:02 AM 56.7°F13.7°C 56.1°F13.4°C 98% 4.7 mph SW7.6 kmh SW 6.8 mph10.9 kmh 30.15 in1021.0 mb 0.00 in0.0 mm 0.00 in0.0 mm 0.00 in0.0 mm
04:07 AM 56.7°F13.7°C 56.1°F13.4°C 98% 4.4 mph SW7.1 kmh SW 8.6 mph13.8 kmh 30.15 in1021.0 mb 0.00 in0.0 mm 0.00 in0.0 mm 0.00 in0.0 mm
04:12 AM 56.9°F13.8°C 56.3°F13.5°C 98% 6.9 mph W11.1 kmh W 8.6 mph13.8 kmh 30.15 in1021.0 mb 0.00 in0.0 mm 0.00 in0.0 mm 0.00 in0.0 mm
04:17 AM 56.9°F13.8°C 56.3°F13.5°C 98% 4.5 mph SW7.2 kmh SW 8.6 mph13.8 kmh 30.15 in1021.0 mb 0.00 in0.0 mm 0.00 in0.0 mm 0.00 in0.0 mm
04:23 AM 56.9°F13.8°C 56.3°F13.5°C 98% 5.2 mph SW8.4 kmh SW 9.8 mph15.8 kmh 30.15 in1021.0 mb 0.00 in0.0 mm 0.00 in0.0 mm 0.00 in0.0 mm
04:28 AM 56.9°F13.8°C 56.3°F13.5°C 98% 5.1 mph WSW8.2 kmh WSW 9.8 mph15.8 kmh 30.15 in1021.0 mb 0.00 in0.0 mm 0.00 in0.0 mm 0.00 in0.0 mm
04:33 AM 56.9°F13.8°C 56.3°F13.5°C 98% 6.0 mph W9.7 kmh W 10.8 mph17.4 kmh 30.15 in1021.0 mb 0.00 in0.0 mm 0.00 in0.0 mm 0.00 in0.0 mm
04:38 AM 57.1°F13.9°C 56.5°F13.6°C 98% 5.7 mph W9.2 kmh W 10.8 mph17.4 kmh 30.15 in1021.0 mb 0.00 in0.0 mm 0.00 in0.0 mm 0.00 in0.0 mm
04:43 AM 57.1°F13.9°C 56.5°F13.6°C 98% 3.3 mph S5.3 kmh S 7.6 mph12.2 kmh 30.15 in1021.0 mb 0.00 in0.0 mm 0.00 in0.0 mm 0.00 in0.0 mm
04:48 AM 57.1°F13.9°C 56.5°F13.6°C 98% 4.6 mph WSW7.4 kmh WSW 6.8 mph10.9 kmh 30.15 in1021.0 mb 0.00 in0.0 mm 0.00 in0.0 mm 0.00 in0.0 mm
04:53 AM 57.1°F13.9°C 56.5°F13.6°C 98% 6.0 mph W9.7 kmh W 8.6 mph13.8 kmh 30.15 in1021.0 mb 0.00 in0.0 mm 0.00 in0.0 mm 0.00 in0.0 mm
04:58 AM 57.3°F14.1°C 56.7°F13.7°C 98% 6.8 mph WSW10.9 kmh WSW 9.4 mph15.1 kmh 30.15 in1021.0 mb 0.00 in0.0 mm 0.00 in0.0 mm 0.00 in0.0 mm
05:03 AM 57.3°F14.1°C 56.7°F13.7°C 98% 5.4 mph SW8.7 kmh SW 9.4 mph15.1 kmh 30.15 in1021.0 mb 0.00 in0.0 mm 0.00 in0.0 mm 0.00 in0.0 mm
05:08 AM 57.3°F14.1°C 56.7°F13.7°C 98% 5.1 mph SSW8.2 kmh SSW 8.0 mph12.9 kmh 30.15 in1021.0 mb 0.00 in0.0 mm 0.00 in0.0 mm 0.00 in0.0 mm
05:13 AM 57.3°F14.1°C 56.7°F13.7°C 98% 7.1 mph WSW11.4 kmh WSW 12.0 mph19.3 kmh 30.15 in1021.0 mb 0.00 in0.0 mm 0.00 in0.0 mm 0.00 in0.0 mm
05:18 AM 57.3°F14.1°C 56.7°F13.7°C 98% 6.2 mph WSW10.0 kmh WSW 12.0 mph19.3 kmh 30.15 in1021.0 mb 0.00 in0.0 mm 0.00 in0.0 mm 0.00 in0.0 mm
05:23 AM 57.3°F14.1°C 56.7°F13.7°C 98% 3.8 mph SW6.1 kmh SW 8.6 mph13.8 kmh 30.15 in1021.0 mb 0.00 in0.0 mm 0.00 in0.0 mm 0.00 in0.0 mm
05:28 AM 57.3°F14.1°C 56.7°F13.7°C 98% 5.8 mph SW9.3 kmh SW 8.6 mph13.8 kmh 30.12 in1020.0 mb 0.00 in0.0 mm 0.00 in0.0 mm 0.00 in0.0 mm
05:33 AM 57.3°F14.1°C 56.7°F13.7°C 98% 5.6 mph WSW9.0 kmh WSW 8.0 mph12.9 kmh 30.12 in1020.0 mb 0.00 in0.0 mm 0.00 in0.0 mm 0.00 in0.0 mm
05:38 AM 57.5°F14.2°C 56.9°F13.8°C 98% 5.6 mph WSW9.0 kmh WSW 9.4 mph15.1 kmh 30.12 in1020.0 mb 0.00 in0.0 mm 0.00 in0.0 mm 0.00 in0.0 mm
05:43 AM 57.5°F14.2°C 56.9°F13.8°C 98% 6.3 mph WSW10.1 kmh WSW 9.8 mph15.8 kmh 30.12 in1020.0 mb 0.00 in0.0 mm 0.00 in0.0 mm 0.00 in0.0 mm
05:48 AM 57.5°F14.2°C 56.9°F13.8°C 98% 7.0 mph WSW11.3 kmh WSW 10.8 mph17.4 kmh 30.12 in1020.0 mb 0.00 in0.0 mm 0.00 in0.0 mm 0.00 in0.0 mm
05:53 AM 57.5°F14.2°C 56.9°F13.8°C 98% 5.7 mph WSW9.2 kmh WSW 10.8 mph17.4 kmh 30.12 in1020.0 mb 0.00 in0.0 mm 0.00 in0.0 mm 0.00 in0.0 mm
05:59 AM 57.5°F14.2°C 56.9°F13.8°C 98% 6.2 mph WSW10.0 kmh WSW 11.2 mph18.0 kmh 30.15 in1021.0 mb 0.00 in0.0 mm 0.00 in0.0 mm 0.00 in0.0 mm
06:04 AM 57.5°F14.2°C 56.9°F13.8°C 98% 5.7 mph WSW9.2 kmh WSW 11.2 mph18.0 kmh 30.15 in1021.0 mb 0.00 in0.0 mm 0.00 in0.0 mm 0.00 in0.0 mm
06:09 AM 57.5°F14.2°C 56.9°F13.8°C 98% 6.9 mph WSW11.1 kmh WSW 10.8 mph17.4 kmh 30.15 in1021.0 mb 0.00 in0.0 mm 0.00 in0.0 mm 0.00 in0.0 mm
06:14 AM 57.5°F14.2°C 56.9°F13.8°C 98% 5.0 mph W8.0 kmh W 9.4 mph15.1 kmh 30.12 in1020.0 mb 0.00 in0.0 mm 0.00 in0.0 mm 0.00 in0.0 mm
06:19 AM 57.5°F14.2°C 56.9°F13.8°C 98% 5.0 mph W8.0 kmh W 9.4 mph15.1 kmh 30.12 in1020.0 mb 0.00 in0.0 mm 0.00 in0.0 mm 0.00 in0.0 mm
06:24 AM 57.5°F14.2°C 56.9°F13.8°C 98% 6.2 mph SW10.0 kmh SW 9.4 mph15.1 kmh 30.12 in1020.0 mb 0.00 in0.0 mm 0.00 in0.0 mm 0.00 in0.0 mm
06:29 AM 57.5°F14.2°C 56.9°F13.8°C 98% 6.4 mph WSW10.3 kmh WSW 9.4 mph15.1 kmh 30.12 in1020.0 mb 0.00 in0.0 mm 0.00 in0.0 mm 0.00 in0.0 mm
06:34 AM 57.6°F14.2°C 57.0°F13.9°C 98% 5.7 mph WSW9.2 kmh WSW 8.6 mph13.8 kmh 30.12 in1020.0 mb 0.00 in0.0 mm 0.00 in0.0 mm 0.00 in0.0 mm
06:39 AM 57.6°F14.2°C 57.0°F13.9°C 98% 5.7 mph WSW9.2 kmh WSW 9.4 mph15.1 kmh 30.12 in1020.0 mb 0.00 in0.0 mm 0.00 in0.0 mm 0.00 in0.0 mm
06:44 AM 57.6°F14.2°C 57.0°F13.9°C 98% 5.1 mph W8.2 kmh W 9.4 mph15.1 kmh 30.15 in1021.0 mb 0.00 in0.0 mm 0.00 in0.0 mm 0.00 in0.0 mm
06:49 AM 57.5°F14.2°C 56.9°F13.8°C 98% 3.2 mph SSW5.1 kmh SSW 8.6 mph13.8 kmh 30.15 in1021.0 mb 0.00 in0.0 mm 0.00 in0.0 mm 0.00 in0.0 mm
06:54 AM 57.5°F14.2°C 56.9°F13.8°C 98% 4.1 mph WSW6.6 kmh WSW 6.2 mph10.0 kmh 30.15 in1021.0 mb 0.00 in0.0 mm 0.00 in0.0 mm 0.00 in0.0 mm
06:59 AM 57.6°F14.2°C 57.0°F13.9°C 98% 5.8 mph WSW9.3 kmh WSW 7.6 mph12.2 kmh 30.15 in1021.0 mb 0.00 in0.0 mm 0.00 in0.0 mm 0.00 in0.0 mm
07:04 AM 57.6°F14.2°C 57.0°F13.9°C 98% 5.7 mph WSW9.2 kmh WSW 7.6 mph12.2 kmh 30.15 in1021.0 mb 0.00 in0.0 mm 0.00 in0.0 mm 0.00 in0.0 mm
07:09 AM 57.6°F14.2°C 57.0°F13.9°C 98% 4.7 mph SW7.6 kmh SW 8.0 mph12.9 kmh 30.15 in1021.0 mb 0.00 in0.0 mm 0.00 in0.0 mm 0.00 in0.0 mm
07:14 AM 57.6°F14.2°C 57.0°F13.9°C 98% 5.3 mph WSW8.5 kmh WSW 8.0 mph12.9 kmh 30.15 in1021.0 mb 0.00 in0.0 mm 0.00 in0.0 mm 0.00 in0.0 mm
07:19 AM 57.6°F14.2°C 57.0°F13.9°C 98% 5.2 mph WSW8.4 kmh WSW 8.0 mph12.9 kmh 30.15 in1021.0 mb 0.00 in0.0 mm 0.00 in0.0 mm 0.00 in0.0 mm
07:25 AM 57.8°F14.3°C 57.2°F14.0°C 98% 6.4 mph WSW10.3 kmh WSW 7.6 mph12.2 kmh 30.15 in1021.0 mb 0.00 in0.0 mm 0.00 in0.0 mm 0.00 in0.0 mm
07:30 AM 57.8°F14.3°C 57.2°F14.0°C 98% 5.4 mph WSW8.7 kmh WSW 7.6 mph12.2 kmh 30.15 in1021.0 mb 0.00 in0.0 mm 0.00 in0.0 mm 0.00 in0.0 mm
07:35 AM 57.8°F14.3°C 57.2°F14.0°C 98% 5.3 mph WSW8.5 kmh WSW 7.2 mph11.6 kmh 30.15 in1021.0 mb 0.00 in0.0 mm 0.00 in0.0 mm 0.00 in0.0 mm
07:40 AM 57.8°F14.3°C 57.2°F14.0°C 98% 6.1 mph SW9.8 kmh SW 8.6 mph13.8 kmh 30.15 in1021.0 mb 0.00 in0.0 mm 0.00 in0.0 mm 0.00 in0.0 mm
07:45 AM 57.8°F14.3°C 57.2°F14.0°C 98% 7.9 mph W12.7 kmh W 12.0 mph19.3 kmh 30.15 in1021.0 mb 0.00 in0.0 mm 0.00 in0.0 mm 0.00 in0.0 mm
07:50 AM 58.0°F14.4°C 57.4°F14.1°C 98% 7.9 mph WSW12.7 kmh WSW 12.0 mph19.3 kmh 30.15 in1021.0 mb 0.00 in0.0 mm 0.00 in0.0 mm 0.00 in0.0 mm
07:55 AM 57.8°F14.3°C 57.2°F14.0°C 98% 5.0 mph WSW8.0 kmh WSW 11.6 mph18.7 kmh 30.15 in1021.0 mb 0.00 in0.0 mm 0.00 in0.0 mm 0.00 in0.0 mm
08:00 AM 57.8°F14.3°C 57.2°F14.0°C 98% 4.2 mph SW6.8 kmh SW 8.0 mph12.9 kmh 30.15 in1021.0 mb 0.00 in0.0 mm 0.00 in0.0 mm 0.00 in0.0 mm
08:05 AM 57.8°F14.3°C 57.2°F14.0°C 98% 4.4 mph SW7.1 kmh SW 8.6 mph13.8 kmh 30.15 in1021.0 mb 0.00 in0.0 mm 0.00 in0.0 mm 0.00 in0.0 mm
08:10 AM 57.8°F14.3°C 57.2°F14.0°C 98% 3.8 mph SSW6.1 kmh SSW 8.6 mph13.8 kmh 30.15 in1021.0 mb 0.00 in0.0 mm 0.00 in0.0 mm 0.00 in0.0 mm
08:15 AM 57.8°F14.3°C 57.2°F14.0°C 98% 5.1 mph SSW8.2 kmh SSW 8.0 mph12.9 kmh 30.12 in1020.0 mb 0.00 in0.0 mm 0.00 in0.0 mm 0.00 in0.0 mm
08:20 AM 57.8°F14.3°C 57.2°F14.0°C 98% 4.0 mph SSW6.4 kmh SSW 7.6 mph12.2 kmh 30.12 in1020.0 mb 0.00 in0.0 mm 0.00 in0.0 mm 0.00 in0.0 mm
08:26 AM 57.8°F14.3°C 57.2°F14.0°C 98% 5.2 mph SW8.4 kmh SW 7.2 mph11.6 kmh 30.12 in1020.0 mb 0.00 in0.0 mm 0.00 in0.0 mm 0.00 in0.0 mm
08:31 AM 57.8°F14.3°C 57.2°F14.0°C 98% 5.6 mph WSW9.0 kmh WSW 8.0 mph12.9 kmh 30.15 in1021.0 mb 0.00 in0.0 mm 0.00 in0.0 mm 0.00 in0.0 mm
08:36 AM 57.8°F14.3°C 57.2°F14.0°C 98% 4.1 mph SW6.6 kmh SW 8.0 mph12.9 kmh 30.15 in1021.0 mb 0.00 in0.0 mm 0.00 in0.0 mm 0.00 in0.0 mm
08:41 AM 58.0°F14.4°C 57.4°F14.1°C 98% 5.5 mph WSW8.9 kmh WSW 8.0 mph12.9 kmh 30.15 in1021.0 mb 0.00 in0.0 mm 0.00 in0.0 mm 0.00 in0.0 mm
08:46 AM 58.0°F14.4°C 57.4°F14.1°C 98% 4.2 mph W6.8 kmh W 8.0 mph12.9 kmh 30.15 in1021.0 mb 0.00 in0.0 mm 0.00 in0.0 mm 0.00 in0.0 mm
08:51 AM 58.2°F14.6°C 57.6°F14.2°C 98% 6.6 mph WSW10.6 kmh WSW 9.4 mph15.1 kmh 30.15 in1021.0 mb 0.00 in0.0 mm 0.00 in0.0 mm 0.00 in0.0 mm
08:56 AM 58.2°F14.6°C 57.6°F14.2°C 98% 4.6 mph W7.4 kmh W 9.4 mph15.1 kmh 30.15 in1021.0 mb 0.00 in0.0 mm 0.00 in0.0 mm 0.00 in0.0 mm
09:01 AM 58.2°F14.6°C 57.6°F14.2°C 98% 6.9 mph W11.1 kmh W 10.8 mph17.4 kmh 30.15 in1021.0 mb 0.00 in0.0 mm 0.00 in0.0 mm 0.00 in0.0 mm
09:06 AM 58.4°F14.7°C 57.8°F14.3°C 98% 4.3 mph WSW6.9 kmh WSW 10.8 mph17.4 kmh 30.15 in1021.0 mb 0.00 in0.0 mm 0.00 in0.0 mm 0.00 in0.0 mm
09:11 AM 58.4°F14.7°C 57.8°F14.3°C 98% 6.0 mph WSW9.7 kmh WSW 8.0 mph12.9 kmh 30.15 in1021.0 mb 0.00 in0.0 mm 0.00 in0.0 mm 0.00 in0.0 mm
09:16 AM 58.5°F14.7°C 57.9°F14.4°C 98% 5.8 mph W9.3 kmh W 8.0 mph12.9 kmh 30.15 in1021.0 mb 0.00 in0.0 mm 0.00 in0.0 mm 0.00 in0.0 mm
09:21 AM 58.7°F14.8°C 58.1°F14.5°C 98% 6.3 mph WSW10.1 kmh WSW 8.0 mph12.9 kmh 30.15 in1021.0 mb 0.00 in0.0 mm 0.00 in0.0 mm 0.00 in0.0 mm
09:26 AM 58.7°F14.8°C 58.1°F14.5°C 98% 5.7 mph W9.2 kmh W 8.0 mph12.9 kmh 30.15 in1021.0 mb 0.00 in0.0 mm 0.00 in0.0 mm 0.00 in0.0 mm
09:31 AM 58.9°F14.9°C 58.3°F14.6°C 98% 5.8 mph WSW9.3 kmh WSW 8.0 mph12.9 kmh 30.15 in1021.0 mb 0.00 in0.0 mm 0.00 in0.0 mm 0.00 in0.0 mm
09:36 AM 58.9°F14.9°C 58.3°F14.6°C 98% 6.7 mph W10.8 kmh W 8.0 mph12.9 kmh 30.15 in1021.0 mb 0.00 in0.0 mm 0.00 in0.0 mm 0.00 in0.0 mm
09:41 AM 58.9°F14.9°C 58.3°F14.6°C 98% 6.5 mph WSW10.5 kmh WSW 9.8 mph15.8 kmh 30.15 in1021.0 mb 0.00 in0.0 mm 0.00 in0.0 mm 0.00 in0.0 mm
09:47 AM 59.1°F15.1°C 58.5°F14.7°C 98% 6.5 mph WSW10.5 kmh WSW 9.8 mph15.8 kmh 30.15 in1021.0 mb 0.00 in0.0 mm 0.00 in0.0 mm 0.00 in0.0 mm
09:52 AM 59.3°F15.2°C 58.7°F14.8°C 98% 6.7 mph WSW10.8 kmh WSW 9.8 mph15.8 kmh 30.15 in1021.0 mb 0.00 in0.0 mm 0.00 in0.0 mm 0.00 in0.0 mm
09:57 AM 59.3°F15.2°C 58.7°F14.8°C 98% 4.6 mph W7.4 kmh W 10.8 mph17.4 kmh 30.15 in1021.0 mb 0.00 in0.0 mm 0.00 in0.0 mm 0.00 in0.0 mm
10:02 AM 59.4°F15.2°C 58.8°F14.9°C 98% 6.8 mph WSW10.9 kmh WSW 10.8 mph17.4 kmh 30.15 in1021.0 mb 0.00 in0.0 mm 0.00 in0.0 mm 0.00 in0.0 mm
10:07 AM 59.6°F15.3°C 59.0°F15.0°C 98% 6.6 mph SW10.6 kmh SW 8.6 mph13.8 kmh 30.15 in1021.0 mb 0.00 in0.0 mm 0.00 in0.0 mm 0.00 in0.0 mm
10:12 AM 59.6°F15.3°C 59.0°F15.0°C 98% 8.2 mph W13.2 kmh W 11.6 mph18.7 kmh 30.15 in1021.0 mb 0.00 in0.0 mm 0.00 in0.0 mm 0.00 in0.0 mm
10:17 AM 59.8°F15.4°C 59.2°F15.1°C 98% 5.5 mph WSW8.9 kmh WSW 11.6 mph18.7 kmh 30.15 in1021.0 mb 0.00 in0.0 mm 0.00 in0.0 mm 0.00 in0.0 mm
10:22 AM 59.9°F15.5°C 59.4°F15.2°C 98% 6.5 mph WSW10.5 kmh WSW 11.2 mph18.0 kmh 30.15 in1021.0 mb 0.00 in0.0 mm 0.00 in0.0 mm 0.00 in0.0 mm
10:27 AM 60.1°F15.6°C 59.6°F15.3°C 98% 4.5 mph W7.2 kmh W 10.8 mph17.4 kmh 30.15 in1021.0 mb 0.00 in0.0 mm 0.00 in0.0 mm 0.00 in0.0 mm
10:32 AM 60.2°F15.7°C 59.4°F15.2°C 97% 5.7 mph SW9.2 kmh SW 11.6 mph18.7 kmh 30.15 in1021.0 mb 0.00 in0.0 mm 0.00 in0.0 mm 0.00 in0.0 mm
10:37 AM 60.2°F15.7°C 59.4°F15.2°C 97% 7.7 mph WSW12.4 kmh WSW 11.6 mph18.7 kmh 30.15 in1021.0 mb 0.00 in0.0 mm 0.00 in0.0 mm 0.00 in0.0 mm
10:42 AM 60.4°F15.8°C 59.6°F15.3°C 97% 7.3 mph WSW11.7 kmh WSW 11.2 mph18.0 kmh 30.15 in1021.0 mb 0.00 in0.0 mm 0.00 in0.0 mm 0.00 in0.0 mm
11:04 AM 61.7°F16.5°C 60.0°F15.6°C 94% 4.6 mph SSW7.4 kmh SSW 8.6 mph13.8 kmh 30.15 in1021.0 mb 0.00 in0.0 mm 0.00 in0.0 mm 0.00 in0.0 mm
11:09 AM 62.0°F16.7°C 60.0°F15.6°C 93% 6.8 mph WSW10.9 kmh WSW 9.4 mph15.1 kmh 30.15 in1021.0 mb 0.00 in0.0 mm 0.00 in0.0 mm 0.00 in0.0 mm
11:14 AM 62.4°F16.9°C 60.1°F15.6°C 92% 6.2 mph W10.0 kmh W 9.8 mph15.8 kmh 30.15 in1021.0 mb 0.00 in0.0 mm 0.00 in0.0 mm 0.00 in0.0 mm
11:19 AM 62.8°F17.1°C 60.4°F15.8°C 92% 5.3 mph WSW8.5 kmh WSW 9.8 mph15.8 kmh 30.15 in1021.0 mb 0.00 in0.0 mm 0.00 in0.0 mm 0.00 in0.0 mm
11:25 AM 62.9°F17.2°C 60.2°F15.7°C 91% 9.2 mph WSW14.8 kmh WSW 14.8 mph23.8 kmh 30.15 in1021.0 mb 0.00 in0.0 mm 0.00 in0.0 mm 0.00 in0.0 mm
11:30 AM 63.3°F17.4°C 60.3°F15.7°C 90% 8.6 mph WSW13.8 kmh WSW 14.8 mph23.8 kmh 30.15 in1021.0 mb 0.00 in0.0 mm 0.00 in0.0 mm 0.00 in0.0 mm
11:35 AM 63.5°F17.5°C 60.5°F15.8°C 90% 6.5 mph W10.5 kmh W 12.0 mph19.3 kmh 30.15 in1021.0 mb 0.00 in0.0 mm 0.00 in0.0 mm 0.00 in0.0 mm
11:40 AM 63.8°F17.7°C 60.5°F15.8°C 89% 8.0 mph WSW12.9 kmh WSW 12.0 mph19.3 kmh 30.15 in1021.0 mb 0.00 in0.0 mm 0.00 in0.0 mm 0.00 in0.0 mm
11:45 AM 64.0°F17.8°C 60.7°F15.9°C 89% 6.4 mph WSW10.3 kmh WSW 13.4 mph21.6 kmh 30.15 in1021.0 mb 0.00 in0.0 mm 0.00 in0.0 mm 0.00 in0.0 mm
11:50 AM 64.2°F17.9°C 60.3°F15.7°C 87% 7.3 mph W11.7 kmh W 13.4 mph21.6 kmh 30.15 in1021.0 mb 0.00 in0.0 mm 0.00 in0.0 mm 0.00 in0.0 mm
11:55 AM 64.6°F18.1°C 61.0°F16.1°C 88% 5.4 mph SW8.7 kmh SW 10.8 mph17.4 kmh 30.15 in1021.0 mb 0.00 in0.0 mm 0.00 in0.0 mm 0.00 in0.0 mm
12:01 PM 64.9°F18.3°C 61.0°F16.1°C 87% 5.8 mph SW9.3 kmh SW 9.8 mph15.8 kmh 30.18 in1022.0 mb 0.00 in0.0 mm 0.00 in0.0 mm 0.00 in0.0 mm
12:07 PM 65.1°F18.4°C 60.9°F16.1°C 86% 4.8 mph SW7.7 kmh SW 10.8 mph17.4 kmh 30.18 in1022.0 mb 0.00 in0.0 mm 0.00 in0.0 mm 0.00 in0.0 mm
12:12 PM 65.8°F18.8°C 61.2°F16.2°C 85% 5.6 mph SSW9.0 kmh SSW 10.8 mph17.4 kmh 30.18 in1022.0 mb 0.00 in0.0 mm 0.00 in0.0 mm 0.00 in0.0 mm
12:17 PM 66.4°F19.1°C 60.8°F16.0°C 82% 6.6 mph WSW10.6 kmh WSW 9.4 mph15.1 kmh 30.15 in1021.0 mb 0.00 in0.0 mm 0.00 in0.0 mm 0.00 in0.0 mm
12:22 PM 67.1°F19.5°C 61.5°F16.4°C 82% 6.1 mph W9.8 kmh W 11.6 mph18.7 kmh 30.15 in1021.0 mb 0.00 in0.0 mm 0.00 in0.0 mm 0.00 in0.0 mm
12:27 PM 67.8°F19.9°C 61.5°F16.4°C 80% 5.6 mph SW9.0 kmh SW 11.6 mph18.7 kmh 30.15 in1021.0 mb 0.00 in0.0 mm 0.00 in0.0 mm 0.00 in0.0 mm
12:32 PM 68.3°F20.2°C 61.7°F16.5°C 79% 7.8 mph SW12.6 kmh SW 10.8 mph17.4 kmh 30.15 in1021.0 mb 0.00 in0.0 mm 0.00 in0.0 mm 0.00 in0.0 mm
12:38 PM 67.6°F19.8°C 60.6°F15.9°C 78% 6.7 mph SW10.8 kmh SW 11.2 mph18.0 kmh 30.15 in1021.0 mb 0.00 in0.0 mm 0.00 in0.0 mm 0.00 in0.0 mm
12:43 PM 67.8°F19.9°C 61.2°F16.2°C 79% 6.8 mph SW10.9 kmh SW 11.2 mph18.0 kmh 30.15 in1021.0 mb 0.00 in0.0 mm 0.00 in0.0 mm 0.00 in0.0 mm
12:50 PM 68.5°F20.3°C 61.1°F16.2°C 77% 6.5 mph WNW10.5 kmh WNW 11.2 mph18.0 kmh 30.15 in1021.0 mb 0.00 in0.0 mm 0.00 in0.0 mm 0.00 in0.0 mm
12:55 PM 70.0°F21.1°C 62.6°F17.0°C 77% 5.9 mph S9.5 kmh S 10.8 mph17.4 kmh 30.15 in1021.0 mb 0.00 in0.0 mm 0.00 in0.0 mm 0.00 in0.0 mm
01:00 PM 70.9°F21.6°C 62.0°F16.7°C 73% 6.9 mph SSW11.1 kmh SSW 10.8 mph17.4 kmh 30.12 in1020.0 mb 0.00 in0.0 mm 0.00 in0.0 mm 0.00 in0.0 mm
01:05 PM 70.7°F21.5°C 61.4°F16.3°C 72% 7.6 mph S12.2 kmh S 13.0 mph20.9 kmh 30.12 in1020.0 mb 0.00 in0.0 mm 0.00 in0.0 mm 0.00 in0.0 mm
01:10 PM 70.7°F21.5°C 61.0°F16.1°C 71% 8.6 mph W13.8 kmh W 15.2 mph24.5 kmh 30.12 in1020.0 mb 0.00 in0.0 mm 0.00 in0.0 mm 0.00 in0.0 mm
01:15 PM 71.0°F21.7°C 61.3°F16.3°C 71% 6.1 mph WSW9.8 kmh WSW 15.2 mph24.5 kmh 30.09 in1019.0 mb 0.00 in0.0 mm 0.00 in0.0 mm 0.00 in0.0 mm
01:20 PM 71.2°F21.8°C 61.5°F16.4°C 71% 6.5 mph S10.5 kmh S 12.0 mph19.3 kmh 30.09 in1019.0 mb 0.00 in0.0 mm 0.00 in0.0 mm 0.00 in0.0 mm
01:25 PM 71.6°F22.0°C 61.5°F16.4°C 70% 7.5 mph SW12.1 kmh SW 12.0 mph19.3 kmh 30.09 in1019.0 mb 0.00 in0.0 mm 0.00 in0.0 mm 0.00 in0.0 mm
01:32 PM 70.7°F21.5°C 61.0°F16.1°C 71% 7.0 mph SSW11.3 kmh SSW 15.6 mph25.1 kmh 30.06 in1017.9 mb 0.00 in0.0 mm 0.00 in0.0 mm 0.00 in0.0 mm
01:37 PM 70.5°F21.4°C 60.8°F16.0°C 71% 6.4 mph WSW10.3 kmh WSW 15.2 mph24.5 kmh 30.06 in1017.9 mb 0.00 in0.0 mm 0.00 in0.0 mm 0.00 in0.0 mm
01:42 PM 70.3°F21.3°C 60.6°F15.9°C 71% 8.0 mph SW12.9 kmh SW 12.0 mph19.3 kmh 30.06 in1017.9 mb 0.00 in0.0 mm 0.00 in0.0 mm 0.00 in0.0 mm
01:47 PM 71.0°F21.7°C 61.3°F16.3°C 71% 6.1 mph W9.8 kmh W 12.0 mph19.3 kmh 30.09 in1019.0 mb 0.00 in0.0 mm 0.00 in0.0 mm 0.00 in0.0 mm
01:52 PM 72.8°F22.7°C 62.2°F16.8°C 69% 6.5 mph N10.5 kmh N 11.6 mph18.7 kmh 30.09 in1019.0 mb 0.00 in0.0 mm 0.00 in0.0 mm 0.00 in0.0 mm
01:57 PM 73.6°F23.1°C 62.2°F16.8°C 67% 7.1 mph WSW11.4 kmh WSW 12.0 mph19.3 kmh 30.09 in1019.0 mb 0.00 in0.0 mm 0.00 in0.0 mm 0.00 in0.0 mm
02:06 PM 73.6°F23.1°C 61.8°F16.6°C 66% 9.6 mph SSW15.4 kmh SSW 17.4 mph28.0 kmh 30.09 in1019.0 mb 0.00 in0.0 mm 0.00 in0.0 mm 0.00 in0.0 mm
02:11 PM 74.3°F23.5°C 61.6°F16.4°C 64% 7.7 mph SW12.4 kmh SW 17.4 mph28.0 kmh 30.09 in1019.0 mb 0.00 in0.0 mm 0.00 in0.0 mm 0.00 in0.0 mm
02:16 PM 75.9°F24.4°C 62.6°F17.0°C 63% 7.3 mph SSW11.7 kmh SSW 12.0 mph19.3 kmh 30.03 in1016.9 mb 0.00 in0.0 mm 0.00 in0.0 mm 0.00 in0.0 mm
02:21 PM 77.0°F25.0°C 62.7°F17.1°C 61% 8.5 mph SSW13.7 kmh SSW 13.4 mph21.6 kmh 30.03 in1016.9 mb 0.00 in0.0 mm 0.00 in0.0 mm 0.00 in0.0 mm
02:26 PM 76.6°F24.8°C 60.9°F16.1°C 58% 6.4 mph SW10.3 kmh SW 13.4 mph21.6 kmh 30.03 in1016.9 mb 0.00 in0.0 mm 0.00 in0.0 mm 0.00 in0.0 mm
02:31 PM 75.5°F24.2°C 60.9°F16.1°C 60% 6.5 mph WSW10.5 kmh WSW 12.0 mph19.3 kmh 30.00 in1015.9 mb 0.00 in0.0 mm 0.00 in0.0 mm 0.00 in0.0 mm
02:37 PM 75.0°F23.9°C 60.9°F16.1°C 61% 5.5 mph SW8.9 kmh SW 8.0 mph12.9 kmh 30.00 in1015.9 mb 0.00 in0.0 mm 0.00 in0.0 mm 0.00 in0.0 mm
02:42 PM 75.9°F24.4°C 61.7°F16.5°C 61% 5.8 mph SSW9.3 kmh SSW 11.6 mph18.7 kmh 30.00 in1015.9 mb 0.00 in0.0 mm 0.00 in0.0 mm 0.00 in0.0 mm
02:47 PM 76.6°F24.8°C 62.4°F16.9°C 61% 7.8 mph S12.6 kmh S 12.6 mph20.3 kmh 30.03 in1016.9 mb 0.00 in0.0 mm 0.00 in0.0 mm 0.00 in0.0 mm
02:52 PM 77.3°F25.2°C 61.6°F16.4°C 58% 6.2 mph SW10.0 kmh SW 12.6 mph20.3 kmh 30.03 in1016.9 mb 0.00 in0.0 mm 0.00 in0.0 mm 0.00 in0.0 mm
02:57 PM 77.5°F25.3°C 61.8°F16.6°C 58% 6.6 mph W10.6 kmh W 17.4 mph28.0 kmh 30.03 in1016.9 mb 0.00 in0.0 mm 0.00 in0.0 mm 0.00 in0.0 mm
03:02 PM 77.7°F25.4°C 61.5°F16.4°C 57% 9.4 mph S15.1 kmh S 17.4 mph28.0 kmh 30.03 in1016.9 mb 0.00 in0.0 mm 0.00 in0.0 mm 0.00 in0.0 mm
03:07 PM 77.7°F25.4°C 60.9°F16.1°C 56% 4.9 mph SW7.9 kmh SW 12.6 mph20.3 kmh 30.03 in1016.9 mb 0.00 in0.0 mm 0.00 in0.0 mm 0.00 in0.0 mm
03:12 PM 77.7°F25.4°C 61.5°F16.4°C 57% 5.5 mph SW8.9 kmh SW 12.6 mph20.3 kmh 30.03 in1016.9 mb 0.00 in0.0 mm 0.00 in0.0 mm 0.00 in0.0 mm
03:17 PM 77.0°F25.0°C 60.3°F15.7°C 56% 7.2 mph WSW11.6 kmh WSW 11.6 mph18.7 kmh 30.03 in1016.9 mb 0.00 in0.0 mm 0.00 in0.0 mm 0.00 in0.0 mm
03:22 PM 76.6°F24.8°C 60.9°F16.1°C 58% 6.2 mph WSW10.0 kmh WSW 11.6 mph18.7 kmh 30.03 in1016.9 mb 0.00 in0.0 mm 0.00 in0.0 mm 0.00 in0.0 mm
03:28 PM 76.4°F24.7°C 60.7°F15.9°C 58% 8.0 mph W12.9 kmh W 9.8 mph15.8 kmh 30.03 in1016.9 mb 0.00 in0.0 mm 0.00 in0.0 mm 0.00 in0.0 mm
03:33 PM 76.1°F24.5°C 60.5°F15.8°C 58% 6.7 mph W10.8 kmh W 12.6 mph20.3 kmh 30.03 in1016.9 mb 0.00 in0.0 mm 0.00 in0.0 mm 0.00 in0.0 mm
03:38 PM 75.5°F24.2°C 60.9°F16.1°C 60% 5.5 mph SW8.9 kmh SW 12.6 mph20.3 kmh 30.03 in1016.9 mb 0.00 in0.0 mm 0.00 in0.0 mm 0.00 in0.0 mm
03:43 PM 75.7°F24.3°C 61.5°F16.4°C 61% 5.9 mph S9.5 kmh S 8.6 mph13.8 kmh 30.00 in1015.9 mb 0.00 in0.0 mm 0.00 in0.0 mm 0.00 in0.0 mm
03:48 PM 75.2°F24.0°C 61.0°F16.1°C 61% 8.0 mph WSW12.9 kmh WSW 12.0 mph19.3 kmh 30.00 in1015.9 mb 0.00 in0.0 mm 0.00 in0.0 mm 0.00 in0.0 mm
03:53 PM 75.2°F24.0°C 61.0°F16.1°C 61% 7.0 mph WSW11.3 kmh WSW 12.0 mph19.3 kmh 30.00 in1015.9 mb 0.00 in0.0 mm 0.00 in0.0 mm 0.00 in0.0 mm
03:59 PM 75.2°F24.0°C 61.5°F16.4°C 62% 6.3 mph SW10.1 kmh SW 11.2 mph18.0 kmh 30.03 in1016.9 mb 0.00 in0.0 mm 0.00 in0.0 mm 0.00 in0.0 mm
04:04 PM 74.8°F23.8°C 61.6°F16.4°C 63% 8.0 mph WSW12.9 kmh WSW 14.8 mph23.8 kmh 30.03 in1016.9 mb 0.00 in0.0 mm 0.00 in0.0 mm 0.00 in0.0 mm
04:09 PM 75.0°F23.9°C 61.8°F16.6°C 63% 6.3 mph WSW10.1 kmh WSW 14.8 mph23.8 kmh 30.03 in1016.9 mb 0.00 in0.0 mm 0.00 in0.0 mm 0.00 in0.0 mm
04:14 PM 75.7°F24.3°C 62.4°F16.9°C 63% 4.8 mph SW7.7 kmh SW 9.4 mph15.1 kmh 30.00 in1015.9 mb 0.00 in0.0 mm 0.00 in0.0 mm 0.00 in0.0 mm
04:19 PM 76.1°F24.5°C 61.9°F16.6°C 61% 7.0 mph W11.3 kmh W 10.8 mph17.4 kmh 30.00 in1015.9 mb 0.00 in0.0 mm 0.00 in0.0 mm 0.00 in0.0 mm
04:24 PM 76.4°F24.7°C 62.2°F16.8°C 61% 5.6 mph WSW9.0 kmh WSW 10.8 mph17.4 kmh 30.00 in1015.9 mb 0.00 in0.0 mm 0.00 in0.0 mm 0.00 in0.0 mm
04:29 PM 77.0°F25.0°C 62.7°F17.1°C 61% 6.3 mph SW10.1 kmh SW 9.8 mph15.8 kmh 30.00 in1015.9 mb 0.00 in0.0 mm 0.00 in0.0 mm 0.00 in0.0 mm
04:34 PM 76.8°F24.9°C 61.6°F16.4°C 59% 8.4 mph SW13.5 kmh SW 13.0 mph20.9 kmh 30.00 in1015.9 mb 0.00 in0.0 mm 0.00 in0.0 mm 0.00 in0.0 mm
04:39 PM 76.4°F24.7°C 61.2°F16.2°C 59% 10.3 mph W16.6 kmh W 17.0 mph27.4 kmh 30.00 in1015.9 mb 0.00 in0.0 mm 0.00 in0.0 mm 0.00 in0.0 mm
04:44 PM 76.6°F24.8°C 61.9°F16.6°C 60% 8.2 mph SW13.2 kmh SW 17.0 mph27.4 kmh 30.00 in1015.9 mb 0.00 in0.0 mm 0.00 in0.0 mm 0.00 in0.0 mm
04:53 PM 76.6°F24.8°C 61.9°F16.6°C 60% 8.2 mph WSW13.2 kmh WSW 15.6 mph25.1 kmh 30.00 in1015.9 mb 0.00 in0.0 mm 0.00 in0.0 mm 0.00 in0.0 mm
04:58 PM 76.6°F24.8°C 61.9°F16.6°C 60% 7.7 mph SW12.4 kmh SW 15.6 mph25.1 kmh 30.00 in1015.9 mb 0.00 in0.0 mm 0.00 in0.0 mm 0.00 in0.0 mm
05:04 PM 76.1°F24.5°C 61.4°F16.3°C 60% 7.5 mph S12.1 kmh S 15.2 mph24.5 kmh 30.00 in1015.9 mb 0.00 in0.0 mm 0.00 in0.0 mm 0.00 in0.0 mm
05:09 PM 75.7°F24.3°C 61.5°F16.4°C 61% 7.1 mph SSW11.4 kmh SSW 9.8 mph15.8 kmh 30.00 in1015.9 mb 0.00 in0.0 mm 0.00 in0.0 mm 0.00 in0.0 mm
05:14 PM 75.2°F24.0°C 61.5°F16.4°C 62% 6.3 mph S10.1 kmh S 9.8 mph15.8 kmh 29.97 in1014.9 mb 0.00 in0.0 mm 0.00 in0.0 mm 0.00 in0.0 mm
05:19 PM 74.8°F23.8°C 61.6°F16.4°C 63% 5.9 mph SSW9.5 kmh SSW 9.8 mph15.8 kmh 29.97 in1014.9 mb 0.00 in0.0 mm 0.00 in0.0 mm 0.00 in0.0 mm
05:25 PM 74.6°F23.7°C 61.8°F16.6°C 64% 4.9 mph SW7.9 kmh SW 8.0 mph12.9 kmh 29.97 in1014.9 mb 0.00 in0.0 mm 0.00 in0.0 mm 0.00 in0.0 mm
05:30 PM 74.6°F23.7°C 61.8°F16.6°C 64% 5.8 mph SSW9.3 kmh SSW 8.0 mph12.9 kmh 29.97 in1014.9 mb 0.00 in0.0 mm 0.00 in0.0 mm 0.00 in0.0 mm
05:35 PM 74.5°F23.6°C 61.7°F16.5°C 64% 8.2 mph SSW13.2 kmh SSW 14.8 mph23.8 kmh 29.97 in1014.9 mb 0.00 in0.0 mm 0.00 in0.0 mm 0.00 in0.0 mm
05:40 PM 74.1°F23.4°C 61.8°F16.6°C 65% 8.1 mph SSW13.0 kmh SSW 14.8 mph23.8 kmh 29.97 in1014.9 mb 0.00 in0.0 mm 0.00 in0.0 mm 0.00 in0.0 mm
05:45 PM 73.9°F23.3°C 61.6°F16.4°C 65% 5.6 mph SSW9.0 kmh SSW 11.6 mph18.7 kmh 29.94 in1013.9 mb 0.00 in0.0 mm 0.00 in0.0 mm 0.00 in0.0 mm
05:50 PM 73.9°F23.3°C 61.6°F16.4°C 65% 7.2 mph SSW11.6 kmh SSW 11.2 mph18.0 kmh 29.94 in1013.9 mb 0.00 in0.0 mm 0.00 in0.0 mm 0.00 in0.0 mm
05:57 PM 73.7°F23.2°C 61.9°F16.6°C 66% 10.3 mph SSW16.6 kmh SSW 15.6 mph25.1 kmh 29.94 in1013.9 mb 0.00 in0.0 mm 0.00 in0.0 mm 0.00 in0.0 mm
06:02 PM 73.6°F23.1°C 61.8°F16.6°C 66% 6.6 mph SSW10.6 kmh SSW 15.6 mph25.1 kmh 29.97 in1014.9 mb 0.00 in0.0 mm 0.00 in0.0 mm 0.00 in0.0 mm
06:07 PM 73.6°F23.1°C 61.8°F16.6°C 66% 5.8 mph SW9.3 kmh SW 14.8 mph23.8 kmh 29.97 in1014.9 mb 0.00 in0.0 mm 0.00 in0.0 mm 0.00 in0.0 mm
06:12 PM 73.4°F23.0°C 61.6°F16.4°C 66% 4.4 mph SW7.1 kmh SW 14.8 mph23.8 kmh 29.97 in1014.9 mb 0.00 in0.0 mm 0.00 in0.0 mm 0.00 in0.0 mm
06:17 PM 73.2°F22.9°C 61.8°F16.6°C 67% 5.1 mph SW8.2 kmh SW 9.4 mph15.1 kmh 29.97 in1014.9 mb 0.00 in0.0 mm 0.00 in0.0 mm 0.00 in0.0 mm
06:22 PM 73.0°F22.8°C 61.6°F16.4°C 67% 7.0 mph S11.3 kmh S 13.8 mph22.2 kmh 29.97 in1014.9 mb 0.00 in0.0 mm 0.00 in0.0 mm 0.00 in0.0 mm
06:28 PM 72.8°F22.7°C 61.4°F16.3°C 67% 6.8 mph SW10.9 kmh SW 13.8 mph22.2 kmh 29.94 in1013.9 mb 0.00 in0.0 mm 0.00 in0.0 mm 0.00 in0.0 mm
06:33 PM 72.7°F22.6°C 61.7°F16.5°C 68% 9.7 mph SW15.6 kmh SW 12.6 mph20.3 kmh 29.94 in1013.9 mb 0.00 in0.0 mm 0.00 in0.0 mm 0.00 in0.0 mm
06:39 PM 72.3°F22.4°C 61.4°F16.3°C 68% 7.6 mph SW12.2 kmh SW 12.6 mph20.3 kmh 29.94 in1013.9 mb 0.00 in0.0 mm 0.00 in0.0 mm 0.00 in0.0 mm
06:44 PM 71.9°F22.2°C 61.0°F16.1°C 68% 7.7 mph WSW12.4 kmh WSW 16.2 mph26.1 kmh 29.97 in1014.9 mb 0.00 in0.0 mm 0.00 in0.0 mm 0.00 in0.0 mm
06:49 PM 71.8°F22.1°C 61.3°F16.3°C 69% 9.1 mph SW14.6 kmh SW 16.2 mph26.1 kmh 29.97 in1014.9 mb 0.00 in0.0 mm 0.00 in0.0 mm 0.00 in0.0 mm
06:54 PM 71.4°F21.9°C 60.9°F16.1°C 69% 7.6 mph SW12.2 kmh SW 11.2 mph18.0 kmh 29.97 in1014.9 mb 0.00 in0.0 mm 0.00 in0.0 mm 0.00 in0.0 mm
06:59 PM 70.9°F21.6°C 60.8°F16.0°C 70% 7.4 mph SW11.9 kmh SW 11.2 mph18.0 kmh 29.97 in1014.9 mb 0.00 in0.0 mm 0.00 in0.0 mm 0.00 in0.0 mm
07:04 PM 70.5°F21.4°C 60.8°F16.0°C 71% 6.7 mph SW10.8 kmh SW 13.0 mph20.9 kmh 29.97 in1014.9 mb 0.00 in0.0 mm 0.00 in0.0 mm 0.00 in0.0 mm
07:09 PM 70.1°F21.2°C 60.5°F15.8°C 71% 6.8 mph SW10.9 kmh SW 13.0 mph20.9 kmh 29.97 in1014.9 mb 0.00 in0.0 mm 0.00 in0.0 mm 0.00 in0.0 mm
07:14 PM 70.0°F21.1°C 60.7°F15.9°C 72% 6.4 mph S10.3 kmh S 9.8 mph15.8 kmh 29.97 in1014.9 mb 0.00 in0.0 mm 0.00 in0.0 mm 0.00 in0.0 mm
07:19 PM 69.8°F21.0°C 60.6°F15.9°C 72% 8.0 mph SW12.9 kmh SW 12.6 mph20.3 kmh 29.97 in1014.9 mb 0.00 in0.0 mm 0.00 in0.0 mm 0.00 in0.0 mm
07:24 PM 69.6°F20.9°C 60.4°F15.8°C 72% 6.2 mph WSW10.0 kmh WSW 12.6 mph20.3 kmh 29.97 in1014.9 mb 0.00 in0.0 mm 0.00 in0.0 mm 0.00 in0.0 mm
07:54 PM 69.1°F20.6°C 60.6°F15.9°C 74% 5.3 mph SSW8.5 kmh SSW 12.0 mph19.3 kmh 29.97 in1014.9 mb 0.00 in0.0 mm 0.00 in0.0 mm 0.00 in0.0 mm
08:04 PM 68.5°F20.3°C 60.4°F15.8°C 75% 7.5 mph SW12.1 kmh SW 10.8 mph17.4 kmh 29.97 in1014.9 mb 0.00 in0.0 mm 0.00 in0.0 mm 0.00 in0.0 mm
08:09 PM 68.5°F20.3°C 60.4°F15.8°C 75% 6.6 mph SW10.6 kmh SW 12.6 mph20.3 kmh 29.97 in1014.9 mb 0.00 in0.0 mm 0.00 in0.0 mm 0.00 in0.0 mm
08:14 PM 68.5°F20.3°C 60.8°F16.0°C 76% 6.7 mph SW10.8 kmh SW 12.6 mph20.3 kmh 29.97 in1014.9 mb 0.00 in0.0 mm 0.00 in0.0 mm 0.00 in0.0 mm
08:19 PM 68.3°F20.2°C 60.6°F15.9°C 76% 5.7 mph SW9.2 kmh SW 9.8 mph15.8 kmh 29.97 in1014.9 mb 0.00 in0.0 mm 0.00 in0.0 mm 0.00 in0.0 mm
08:24 PM 68.2°F20.1°C 60.5°F15.8°C 76% 6.3 mph SW10.1 kmh SW 11.2 mph18.0 kmh 29.97 in1014.9 mb 0.00 in0.0 mm 0.00 in0.0 mm 0.00 in0.0 mm
08:29 PM 67.8°F19.9°C 60.5°F15.8°C 77% 5.2 mph SW8.4 kmh SW 11.2 mph18.0 kmh 29.97 in1014.9 mb 0.00 in0.0 mm 0.00 in0.0 mm 0.00 in0.0 mm
08:34 PM 67.8°F19.9°C 60.8°F16.0°C 78% 8.0 mph SW12.9 kmh SW 11.2 mph18.0 kmh 29.97 in1014.9 mb 0.00 in0.0 mm 0.00 in0.0 mm 0.00 in0.0 mm
08:39 PM 68.0°F20.0°C 60.7°F15.9°C 77% 8.9 mph WSW14.3 kmh WSW 11.2 mph18.0 kmh 29.97 in1014.9 mb 0.00 in0.0 mm 0.00 in0.0 mm 0.00 in0.0 mm
08:44 PM 68.0°F20.0°C 60.7°F15.9°C 77% 7.4 mph WSW11.9 kmh WSW 17.4 mph28.0 kmh 29.97 in1014.9 mb 0.00 in0.0 mm 0.00 in0.0 mm 0.00 in0.0 mm
08:49 PM 68.0°F20.0°C 60.7°F15.9°C 77% 7.6 mph WSW12.2 kmh WSW 17.4 mph28.0 kmh 29.97 in1014.9 mb 0.00 in0.0 mm 0.00 in0.0 mm 0.00 in0.0 mm
08:54 PM 67.8°F19.9°C 60.5°F15.8°C 77% 6.4 mph WSW10.3 kmh WSW 13.8 mph22.2 kmh 29.97 in1014.9 mb 0.00 in0.0 mm 0.00 in0.0 mm 0.00 in0.0 mm
08:59 PM 67.6°F19.8°C 60.6°F15.9°C 78% 7.0 mph WSW11.3 kmh WSW 13.8 mph22.2 kmh 29.94 in1013.9 mb 0.00 in0.0 mm 0.00 in0.0 mm 0.00 in0.0 mm
09:04 PM 67.8°F19.9°C 60.5°F15.8°C 77% 9.3 mph WSW15.0 kmh WSW 14.8 mph23.8 kmh 29.94 in1013.9 mb 0.00 in0.0 mm 0.00 in0.0 mm 0.00 in0.0 mm
09:09 PM 67.8°F19.9°C 60.5°F15.8°C 77% 12.2 mph SSW19.6 kmh SSW 17.8 mph28.6 kmh 29.94 in1013.9 mb 0.00 in0.0 mm 0.00 in0.0 mm 0.00 in0.0 mm
09:14 PM 67.8°F19.9°C 60.5°F15.8°C 77% 7.3 mph WSW11.7 kmh WSW 17.8 mph28.6 kmh 29.94 in1013.9 mb 0.00 in0.0 mm 0.00 in0.0 mm 0.00 in0.0 mm
09:19 PM 67.4°F19.7°C 60.4°F15.8°C 78% 6.9 mph SW11.1 kmh SW 16.2 mph26.1 kmh 29.94 in1013.9 mb 0.00 in0.0 mm 0.00 in0.0 mm 0.00 in0.0 mm
09:25 PM 67.4°F19.7°C 60.4°F15.8°C 78% 8.5 mph SW13.7 kmh SW 14.4 mph23.2 kmh 29.94 in1013.9 mb 0.00 in0.0 mm 0.00 in0.0 mm 0.00 in0.0 mm
09:30 PM 67.4°F19.7°C 60.4°F15.8°C 78% 9.0 mph W14.5 kmh W 14.4 mph23.2 kmh 29.97 in1014.9 mb 0.00 in0.0 mm 0.00 in0.0 mm 0.00 in0.0 mm
09:35 PM 67.3°F19.6°C 60.7°F15.9°C 79% 9.3 mph WSW15.0 kmh WSW 16.2 mph26.1 kmh 29.97 in1014.9 mb 0.00 in0.0 mm 0.00 in0.0 mm 0.00 in0.0 mm
09:40 PM 67.3°F19.6°C 60.7°F15.9°C 79% 9.8 mph SW15.8 kmh SW 17.0 mph27.4 kmh 29.97 in1014.9 mb 0.00 in0.0 mm 0.00 in0.0 mm 0.00 in0.0 mm
09:45 PM 67.3°F19.6°C 60.7°F15.9°C 79% 8.4 mph SW13.5 kmh SW 17.8 mph28.6 kmh 29.97 in1014.9 mb 0.00 in0.0 mm 0.00 in0.0 mm 0.00 in0.0 mm
09:50 PM 67.1°F19.5°C 60.5°F15.8°C 79% 10.2 mph WSW16.4 kmh WSW 17.8 mph28.6 kmh 29.97 in1014.9 mb 0.00 in0.0 mm 0.00 in0.0 mm 0.00 in0.0 mm
09:55 PM 66.9°F19.4°C 60.3°F15.7°C 79% 8.6 mph WSW13.8 kmh WSW 16.2 mph26.1 kmh 29.97 in1014.9 mb 0.00 in0.0 mm 0.00 in0.0 mm 0.00 in0.0 mm
10:00 PM 67.1°F19.5°C 60.5°F15.8°C 79% 12.1 mph WSW19.5 kmh WSW 15.2 mph24.5 kmh 29.94 in1013.9 mb 0.00 in0.0 mm 0.00 in0.0 mm 0.00 in0.0 mm
10:05 PM 66.9°F19.4°C 60.3°F15.7°C 79% 9.4 mph SW15.1 kmh SW 18.8 mph30.3 kmh 29.94 in1013.9 mb 0.00 in0.0 mm 0.00 in0.0 mm 0.00 in0.0 mm
10:10 PM 66.9°F19.4°C 60.6°F15.9°C 80% 8.0 mph WSW12.9 kmh WSW 18.8 mph30.3 kmh 29.94 in1013.9 mb 0.00 in0.0 mm 0.00 in0.0 mm 0.00 in0.0 mm
10:15 PM 66.7°F19.3°C 60.4°F15.8°C 80% 7.8 mph SW12.6 kmh SW 15.2 mph24.5 kmh 29.97 in1014.9 mb 0.00 in0.0 mm 0.00 in0.0 mm 0.00 in0.0 mm
10:20 PM 66.7°F19.3°C 60.4°F15.8°C 80% 10.7 mph WSW17.2 kmh WSW 15.6 mph25.1 kmh 29.97 in1014.9 mb 0.00 in0.0 mm 0.00 in0.0 mm 0.00 in0.0 mm
10:26 PM 66.5°F19.2°C 60.6°F15.9°C 81% 10.3 mph WSW16.6 kmh WSW 15.6 mph25.1 kmh 29.97 in1014.9 mb 0.00 in0.0 mm 0.00 in0.0 mm 0.00 in0.0 mm
10:31 PM 66.4°F19.1°C 60.5°F15.8°C 81% 7.4 mph SW11.9 kmh SW 14.8 mph23.8 kmh 29.97 in1014.9 mb 0.00 in0.0 mm 0.00 in0.0 mm 0.00 in0.0 mm
10:36 PM 66.4°F19.1°C 60.5°F15.8°C 81% 9.4 mph SW15.1 kmh SW 14.8 mph23.8 kmh 29.97 in1014.9 mb 0.00 in0.0 mm 0.00 in0.0 mm 0.00 in0.0 mm
10:41 PM 66.2°F19.0°C 60.3°F15.7°C 81% 8.1 mph SW13.0 kmh SW 13.8 mph22.2 kmh 29.97 in1014.9 mb 0.00 in0.0 mm 0.00 in0.0 mm 0.00 in0.0 mm
10:46 PM 66.2°F19.0°C 60.6°F15.9°C 82% 9.4 mph WSW15.1 kmh WSW 13.8 mph22.2 kmh 29.97 in1014.9 mb 0.00 in0.0 mm 0.00 in0.0 mm 0.00 in0.0 mm
10:51 PM 66.0°F18.9°C 60.4°F15.8°C 82% 7.2 mph WSW11.6 kmh WSW 13.4 mph21.6 kmh 29.97 in1014.9 mb 0.00 in0.0 mm 0.00 in0.0 mm 0.00 in0.0 mm
10:56 PM 66.0°F18.9°C 60.4°F15.8°C 82% 8.7 mph SW14.0 kmh SW 14.4 mph23.2 kmh 29.97 in1014.9 mb 0.00 in0.0 mm 0.00 in0.0 mm 0.00 in0.0 mm
11:01 PM 66.0°F18.9°C 60.4°F15.8°C 82% 8.3 mph WSW13.4 kmh WSW 14.4 mph23.2 kmh 29.97 in1014.9 mb 0.00 in0.0 mm 0.00 in0.0 mm 0.00 in0.0 mm
11:06 PM 66.0°F18.9°C 60.4°F15.8°C 82% 7.8 mph SW12.6 kmh SW 13.0 mph20.9 kmh 29.97 in1014.9 mb 0.00 in0.0 mm 0.00 in0.0 mm 0.00 in0.0 mm
11:11 PM 65.8°F18.8°C 60.6°F15.9°C 83% 9.0 mph WSW14.5 kmh WSW 13.0 mph20.9 kmh 29.97 in1014.9 mb 0.00 in0.0 mm 0.00 in0.0 mm 0.00 in0.0 mm
11:16 PM 65.8°F18.8°C 60.6°F15.9°C 83% 8.0 mph WSW12.9 kmh WSW 13.0 mph20.9 kmh 29.97 in1014.9 mb 0.00 in0.0 mm 0.00 in0.0 mm 0.00 in0.0 mm
11:21 PM 65.6°F18.7°C 60.4°F15.8°C 83% 8.2 mph WSW13.2 kmh WSW 14.4 mph23.2 kmh 29.97 in1014.9 mb 0.00 in0.0 mm 0.00 in0.0 mm 0.00 in0.0 mm
11:26 PM 65.6°F18.7°C 60.4°F15.8°C 83% 10.0 mph WSW16.1 kmh WSW 14.4 mph23.2 kmh 29.97 in1014.9 mb 0.00 in0.0 mm 0.00 in0.0 mm 0.00 in0.0 mm
11:31 PM 65.8°F18.8°C 60.6°F15.9°C 83% 10.4 mph WSW16.7 kmh WSW 15.2 mph24.5 kmh 29.97 in1014.9 mb 0.00 in0.0 mm 0.00 in0.0 mm 0.00 in0.0 mm
11:36 PM 65.8°F18.8°C 60.6°F15.9°C 83% 8.9 mph WSW14.3 kmh WSW 15.6 mph25.1 kmh 29.97 in1014.9 mb 0.00 in0.0 mm 0.00 in0.0 mm 0.00 in0.0 mm
11:41 PM 65.8°F18.8°C 60.2°F15.7°C 82% 7.6 mph WSW12.2 kmh WSW 16.2 mph26.1 kmh 29.97 in1014.9 mb 0.00 in0.0 mm 0.00 in0.0 mm 0.00 in0.0 mm
11:46 PM 65.6°F18.7°C 60.4°F15.8°C 83% 7.1 mph WSW11.4 kmh WSW 16.2 mph26.1 kmh 29.97 in1014.9 mb 0.00 in0.0 mm 0.00 in0.0 mm 0.00 in0.0 mm
11:51 PM 65.6°F18.7°C 60.4°F15.8°C 83% 8.5 mph SW13.7 kmh SW 12.6 mph20.3 kmh 29.97 in1014.9 mb 0.00 in0.0 mm 0.00 in0.0 mm 0.00 in0.0 mm
11:56 PM 65.5°F18.6°C 60.3°F15.7°C 83% 8.4 mph SW13.5 kmh SW 12.6 mph20.3 kmh 29.97 in1014.9 mb 0.00 in0.0 mm 0.00 in0.0 mm 0.00 in0.0 mm